Time;durP1;ratioP1;P1;durP2;ratioP2;P2;SDS_P1;SDS_P2;PMS_P1;PMS_P2;Temp;Humidity;BMP_temperature;BMP_pressure;BME280_temperature;BME280_humidity;BME280_pressure;Samples;Min_cycle;Max_cycle;Signal;HPM_P1;HPM_P2
2022/01/02 00:00:40;;;;;;;;;;;;;;;11.79;65.13;101512.03;5084266;28;1479;-38
2022/01/02 00:03:08;;;;;;;;;;;;;;;11.73;65.57;101503.44;5088806;28;1418;-38
2022/01/02 00:05:36;;;;;;;;;;;;;;;11.69;64.85;101507.16;5083534;28;1858;-38
2022/01/02 00:08:04;;;;;;;;;;;;;;;11.70;65.30;101508.88;5090502;28;1942;-39
2022/01/02 00:10:32;;;;;;;;;;;;;;;11.69;65.03;101506.28;5081898;28;1802;-38
2022/01/02 00:13:01;;;;;;;;;;;;;;;11.69;65.30;101507.16;5083566;28;1789;-39
2022/01/02 00:15:28;;;;;;;;;;;;;;;11.71;64.54;101507.94;5083312;28;1619;-39
2022/01/02 00:17:55;;;;;;;;;;;;;;;11.72;64.67;101522.06;5083434;28;1064;-38
2022/01/02 00:20:31;;;;;;;;;;;;;;;11.73;64.47;101531.72;5084736;28;1816;-38
2022/01/02 00:22:58;;;;;;;;;;;;;;;11.76;65.33;101528.94;5083969;28;1845;-38
2022/01/02 00:25:28;;;;;;;;;;;;;;;11.70;65.17;101529.22;5083708;28;1597;-38
2022/01/02 00:27:55;;;;;;;;;;;;;;;11.75;65.10;101546.59;5083834;28;1965;-38
2022/01/02 00:30:23;;;;;;;;;;;;;;;11.76;65.31;101542.19;5084021;28;1784;-38
2022/01/02 00:32:49;;;;;;;;;;;;;;;11.74;65.47;101552.00;5086437;28;1039;-39
2022/01/02 00:35:16;;;;;;;;;;;;;;;11.70;65.30;101542.47;5085445;28;1780;-38
2022/01/02 00:37:42;;;;;;;;;;;;;;;11.72;65.31;101540.63;5083820;28;1982;-38
2022/01/02 00:40:09;;;;;;;;;;;;;;;11.72;65.32;101548.56;5083701;28;1645;-39
2022/01/02 00:42:38;;;;;;;;;;;;;;;11.72;64.33;101543.25;5083215;28;1786;-38
2022/01/02 00:45:05;;;;;;;;;;;;;;;11.74;64.65;101550.19;5073038;28;1826;-39
2022/01/02 00:47:38;;;;;;;;;;;;;;;11.72;64.67;101549.41;5085077;28;1088;-38
2022/01/02 00:50:10;;;;;;;;;;;;;;;11.71;65.20;101541.53;5086633;28;2015;-38
2022/01/02 00:52:38;;;;;;;;;;;;;;;11.70;65.19;101534.53;5083408;28;1508;-39
2022/01/02 00:55:09;;;;;;;;;;;;;;;11.74;65.25;101552.00;5083133;28;1585;-38
2022/01/02 00:57:36;;;;;;;;;;;;;;;11.74;65.19;101547.56;5082974;28;1618;-38
2022/01/02 01:00:06;;;;;;;;;;;;;;;11.75;64.87;101551.06;5084599;28;1063;-38
2022/01/02 01:02:35;;;;;;;;;;;;;;;11.74;65.09;101546.69;5080911;28;1940;-39
2022/01/02 01:05:03;;;;;;;;;;;;;;;11.73;65.46;101544.97;5087178;28;2032;-38
2022/01/02 01:07:31;;;;;;;;;;;;;;;11.73;64.62;101544.97;5087315;28;1652;-39
2022/01/02 01:09:59;;;;;;;;;;;;;;;11.76;64.44;101547.50;5083861;28;2024;-40
2022/01/02 01:12:26;;;;;;;;;;;;;;;11.71;64.97;101537.09;5085300;28;1029;-38
2022/01/02 01:14:52;;;;;;;;;;;;;;;11.69;65.22;101538.94;5079429;28;1636;-39
2022/01/02 01:17:19;;;;;;;;;;;;;;;11.77;65.18;101545.69;5082238;28;1696;-38
2022/01/02 01:19:51;;;;;;;;;;;;;;;11.75;65.16;101543.97;5088174;28;1512;-39
2022/01/02 01:22:17;;;;;;;;;;;;;;;11.75;65.20;101537.81;5083327;28;1904;-38
2022/01/02 01:24:44;;;;;;;;;;;;;;;11.70;65.31;101538.03;5072466;28;1745;-38
2022/01/02 01:27:10;;;;;;;;;;;;;;;11.76;64.93;101547.50;5081138;28;1615;-38
2022/01/02 01:29:37;;;;;;;;;;;;;;;11.74;64.60;101546.69;5082432;28;1983;-38
2022/01/02 01:32:05;;;;;;;;;;;;;;;11.74;65.06;101533.44;5083332;28;965;-39
2022/01/02 01:34:32;;;;;;;;;;;;;;;11.76;64.65;101555.44;5089784;28;1930;-39
2022/01/02 01:36:59;;;;;;;;;;;;;;;11.71;64.63;101566.22;5081320;28;1801;-38
2022/01/02 01:39:26;;;;;;;;;;;;;;;11.72;64.66;101556.50;5081270;28;1771;-38
2022/01/02 01:41:54;;;;;;;;;;;;;;;11.68;64.36;101542.53;5078954;28;1869;-39
2022/01/02 01:44:39;;;;;;;;;;;;;;;11.73;64.62;101537.00;5082033;28;1613;-38
2022/01/02 01:47:06;;;;;;;;;;;;;;;11.67;64.47;101537.28;5083674;28;1079;-39
2022/01/02 01:49:32;;;;;;;;;;;;;;;11.66;65.50;101528.50;5089653;28;1914;-38
2022/01/02 01:52:00;;;;;;;;;;;;;;;11.67;64.71;101538.16;5080635;28;1618;-38
2022/01/02 01:54:27;;;;;;;;;;;;;;;11.69;64.57;101554.84;5081139;28;1562;-39
2022/01/02 01:56:53;;;;;;;;;;;;;;;11.66;65.62;101540.88;5082499;28;1827;-39
2022/01/02 01:59:20;;;;;;;;;;;;;;;11.65;64.51;101547.94;5081831;28;1589;-40
2022/01/02 02:01:47;;;;;;;;;;;;;;;11.67;65.36;101550.53;5082063;28;1077;-38
2022/01/02 02:04:15;;;;;;;;;;;;;;;11.67;65.16;101550.53;5089497;28;1764;-38
2022/01/02 02:06:41;;;;;;;;;;;;;;;11.66;64.57;101557.63;5084476;28;1089;-38
2022/01/02 02:09:09;;;;;;;;;;;;;;;11.67;64.52;101558.50;5083129;28;1931;-38
2022/01/02 02:11:36;;;;;;;;;;;;;;;11.69;65.04;101546.88;5082917;28;1676;-38
2022/01/02 02:14:04;;;;;;;;;;;;;;;11.66;65.57;101552.34;5082588;28;1692;-39
2022/01/02 02:16:31;;;;;;;;;;;;;;;11.67;64.75;101561.13;5082512;28;1618;-39
2022/01/02 02:18:57;;;;;;;;;;;;;;;11.68;64.44;101568.19;5083680;28;1852;-38
2022/01/02 02:21:29;;;;;;;;;;;;;;;11.67;64.73;101561.13;5082002;28;1883;-39
2022/01/02 02:23:55;;;;;;;;;;;;;;;11.66;64.73;101580.63;5081406;28;1920;-40
2022/01/02 02:26:22;;;;;;;;;;;;;;;11.66;65.41;101564.72;5085265;28;1091;-38
2022/01/02 02:28:48;;;;;;;;;;;;;;;11.67;64.96;101577.03;5082676;28;1910;-38
2022/01/02 02:31:15;;;;;;;;;;;;;;;11.68;64.97;101589.38;5085060;28;1791;-38
2022/01/02 02:33:41;;;;;;;;;;;;;;;11.64;65.40;101575.38;5094681;28;1804;-39
2022/01/02 02:36:08;;;;;;;;;;;;;;;11.65;65.20;101584.19;5085941;28;1063;-38
2022/01/02 02:38:38;;;;;;;;;;;;;;;11.69;64.99;101593.72;5079245;28;1594;-39
2022/01/02 02:41:04;;;;;;;;;;;;;;;11.61;65.52;101583.47;5083770;28;1651;-38
2022/01/02 02:43:36;;;;;;;;;;;;;;;11.64;64.52;101572.75;5085167;28;1625;-38
2022/01/02 02:49:03;;;;;;;;;;;;;;;11.60;64.97;101583.53;5081438;28;1980;-38
2022/01/02 02:51:37;;;;;;;;;;;;;;;11.63;65.14;101580.75;5081530;28;1958;-38
2022/01/02 02:54:05;;;;;;;;;;;;;;;11.66;64.31;101583.28;5086063;28;1506;-38
2022/01/02 02:56:42;;;;;;;;;;;;;;;11.68;65.29;101584.06;5085591;28;1295;-38
2022/01/02 02:59:09;;;;;;;;;;;;;;;11.65;65.20;101584.19;5085540;28;1493;-39
2022/01/02 03:01:36;;;;;;;;;;;;;;;11.67;64.37;101588.47;5201894;22;3686;-38
2022/01/02 03:04:02;;;;;;;;;;;;;;;11.65;65.23;101589.50;5083295;28;1655;-38
2022/01/02 03:06:29;;;;;;;;;;;;;;;11.67;64.53;101596.44;5086383;28;1274;-38
2022/01/02 03:09:00;;;;;;;;;;;;;;;11.67;64.09;101592.94;5087241;28;1903;-38
2022/01/02 03:11:28;;;;;;;;;;;;;;;11.65;65.39;101600.94;5085473;28;1482;-38
2022/01/02 03:13:55;;;;;;;;;;;;;;;11.68;64.83;101606.13;5085532;28;1833;-39
2022/01/02 03:16:21;;;;;;;;;;;;;;;11.72;64.38;101617.44;5085512;28;1857;-39
2022/01/02 03:18:48;;;;;;;;;;;;;;;11.68;64.05;101615.88;5085864;28;1650;-38
2022/01/02 03:21:14;;;;;;;;;;;;;;;11.70;64.22;101621.97;5084410;28;1125;-40
2022/01/02 03:23:41;;;;;;;;;;;;;;;11.69;65.08;101613.13;5086940;28;1064;-38
2022/01/02 03:26:08;;;;;;;;;;;;;;;11.64;65.05;101611.59;5081457;28;1849;-38
2022/01/02 03:28:36;;;;;;;;;;;;;;;11.62;65.10;101610.81;5084277;28;1905;-38
2022/01/02 03:31:03;;;;;;;;;;;;;;;11.61;65.22;101614.41;5085310;28;1667;-38
2022/01/02 03:33:29;;;;;;;;;;;;;;;11.59;64.67;101610.97;5092892;28;1169;-38
2022/01/02 03:35:56;;;;;;;;;;;;;;;11.62;65.42;101621.41;5082416;28;1629;-38
2022/01/02 03:38:22;;;;;;;;;;;;;;;11.62;64.50;101616.09;5082744;28;1826;-38
2022/01/02 03:40:49;;;;;;;;;;;;;;;11.67;65.32;101622.06;5075835;28;1567;-39
2022/01/02 03:43:15;;;;;;;;;;;;;;;11.67;64.95;101616.78;5084595;28;1836;-38
2022/01/02 03:45:43;;;;;;;;;;;;;;;11.63;65.23;101613.41;5084555;28;1704;-38
2022/01/02 03:48:10;;;;;;;;;;;;;;;11.63;64.99;101612.53;5089991;28;1167;-38
2022/01/02 03:50:36;;;;;;;;;;;;;;;11.61;65.44;101614.41;5083871;28;1969;-38
2022/01/02 03:53:03;;;;;;;;;;;;;;;11.58;64.53;101614.50;5084514;28;1947;-38
2022/01/02 03:55:29;;;;;;;;;;;;;;;11.58;64.44;101609.22;5084604;28;1479;-38
2022/01/02 03:57:56;;;;;;;;;;;;;;;11.57;65.24;101631.34;5084633;28;1677;-38
2022/01/02 04:00:22;;;;;;;;;;;;;;;11.59;64.66;101626.84;5084621;28;1667;-38
2022/01/02 04:02:50;;;;;;;;;;;;;;;11.63;64.47;101641.69;5086225;28;1305;-38
2022/01/02 04:05:17;;;;;;;;;;;;;;;11.61;64.80;101638.25;5085695;28;1808;-38
2022/01/02 04:07:44;;;;;;;;;;;;;;;11.60;64.23;101647.09;5088610;28;1684;-38
2022/01/02 04:10:12;;;;;;;;;;;;;;;11.58;65.27;101646.31;5083897;28;1906;-38
2022/01/02 04:12:38;;;;;;;;;;;;;;;11.55;65.46;101647.31;5080704;28;1777;-40
2022/01/02 04:15:06;;;;;;;;;;;;;;;11.58;65.04;101651.59;5085591;28;1162;-38
2022/01/02 04:17:33;;;;;;;;;;;;;;;11.55;65.48;101653.47;5080722;28;2038;-38
2022/01/02 04:20:01;;;;;;;;;;;;;;;11.53;64.69;101652.66;5088297;28;1957;-38
2022/01/02 04:22:27;;;;;;;;;;;;;;;11.58;64.53;101672.78;5083857;28;1691;-39
2022/01/02 04:24:53;;;;;;;;;;;;;;;11.59;64.76;101664.78;5083096;28;1499;-39
2022/01/02 04:27:21;;;;;;;;;;;;;;;11.58;65.05;101656.91;5081558;28;1620;-38
2022/01/02 04:29:48;;;;;;;;;;;;;;;11.58;64.23;101656.91;5084104;28;1969;-38
2022/01/02 04:32:14;;;;;;;;;;;;;;;11.60;64.37;101660.34;5081093;28;1074;-38
2022/01/02 04:34:41;;;;;;;;;;;;;;;11.57;65.13;101661.34;5090789;28;1755;-38
2022/01/02 04:37:10;;;;;;;;;;;;;;;11.58;65.06;101665.72;5073425;28;1541;-38
2022/01/02 04:39:36;;;;;;;;;;;;;;;11.54;65.25;101662.34;5081787;28;1698;-39
2022/01/02 04:42:03;;;;;;;;;;;;;;;11.56;65.03;101675.53;5082141;28;1747;-38
2022/01/02 04:44:29;;;;;;;;;;;;;;;11.54;65.41;101672.94;5083006;28;1719;-38
2022/01/02 04:46:56;;;;;;;;;;;;;;;11.56;64.10;101672.88;5082623;28;1086;-38
2022/01/02 04:49:22;;;;;;;;;;;;;;;11.53;65.42;101671.19;5089450;28;1977;-38
2022/01/02 04:51:49;;;;;;;;;;;;;;;11.53;64.94;101665.91;5081467;28;1503;-39
2022/01/02 04:54:17;;;;;;;;;;;;;;;11.53;64.50;101654.47;5082931;28;1599;-39
2022/01/02 04:56:43;;;;;;;;;;;;;;;11.50;65.46;101655.47;5082216;28;1752;-39
2022/01/02 04:59:10;;;;;;;;;;;;;;;11.52;64.77;101663.34;5082510;28;1066;-38
2022/01/02 05:01:36;;;;;;;;;;;;;;;11.54;65.13;101662.34;5080779;28;1632;-39
2022/01/02 05:04:03;;;;;;;;;;;;;;;11.51;64.45;101662.47;5090766;28;1634;-38
2022/01/02 05:06:29;;;;;;;;;;;;;;;11.53;65.45;101667.69;5084238;28;1078;-38
2022/01/02 05:08:55;;;;;;;;;;;;;;;11.53;65.68;101671.19;5085340;28;1885;-38
2022/01/02 05:11:23;;;;;;;;;;;;;;;11.57;64.39;101668.44;5083044;28;1606;-38
2022/01/02 05:13:50;;;;;;;;;;;;;;;11.55;65.23;101664.06;5083472;28;1732;-38
2022/01/02 05:16:16;;;;;;;;;;;;;;;11.57;64.21;101664.00;5082971;28;1746;-38
2022/01/02 05:18:43;;;;;;;;;;;;;;;11.56;64.57;101675.53;5083614;28;1456;-39
2022/01/02 05:21:09;;;;;;;;;;;;;;;11.59;65.21;101674.53;5083725;28;1132;-38
2022/01/02 05:23:36;;;;;;;;;;;;;;;11.62;64.99;101684.97;5081149;28;1906;-38
2022/01/02 05:26:02;;;;;;;;;;;;;;;11.62;64.04;101677.91;5081636;28;1881;-38
2022/01/02 05:28:30;;;;;;;;;;;;;;;11.56;64.96;101678.19;5074486;28;2030;-39
2022/01/02 05:30:56;;;;;;;;;;;;;;;11.57;64.15;101677.25;5083276;28;1980;-38
2022/01/02 05:33:23;;;;;;;;;;;;;;;11.58;65.36;101686.03;5090210;28;998;-38
2022/01/02 05:35:49;;;;;;;;;;;;;;;11.59;64.29;101696.56;5080987;28;1648;-38
2022/01/02 05:38:19;;;;;;;;;;;;;;;11.57;64.26;101686.97;5081813;28;1644;-38
2022/01/02 05:40:46;;;;;;;;;;;;;;;11.54;64.80;101696.78;5082762;28;1630;-38
2022/01/02 05:43:14;;;;;;;;;;;;;;;11.53;64.30;101702.13;5083234;28;1685;-38
2022/01/02 05:45:42;;;;;;;;;;;;;;;11.50;64.36;101708.44;5082845;28;1403;-38
2022/01/02 05:48:08;;;;;;;;;;;;;;;11.51;64.78;101709.28;5088456;28;1265;-38
2022/01/02 05:50:35;;;;;;;;;;;;;;;11.49;64.55;101712.00;5082201;28;1910;-38
2022/01/02 05:53:01;;;;;;;;;;;;;;;11.50;64.96;101716.38;5082949;28;1519;-38
2022/01/02 05:55:28;;;;;;;;;;;;;;;11.53;64.29;101715.38;5083020;28;1702;-38
2022/01/02 05:57:54;;;;;;;;;;;;;;;11.55;64.60;101717.03;5082979;28;1792;-38
2022/01/02 06:00:21;;;;;;;;;;;;;;;11.58;64.21;101721.38;5083639;28;1530;-39
2022/01/02 06:02:48;;;;;;;;;;;;;;;11.57;64.34;101724.06;5088365;28;1399;-39
2022/01/02 06:05:15;;;;;;;;;;;;;;;11.52;64.46;101741.03;5088424;28;2020;-38
2022/01/02 06:07:41;;;;;;;;;;;;;;;11.50;64.52;101734.06;5091061;28;1735;-38
2022/01/02 06:10:08;;;;;;;;;;;;;;;11.53;64.54;101718.88;5085837;28;1906;-39
2022/01/02 06:12:35;;;;;;;;;;;;;;;11.51;64.64;101726.03;5085530;28;1063;-38
2022/01/02 06:15:01;;;;;;;;;;;;;;;11.51;65.13;101749.88;5084222;28;1670;-38
2022/01/02 06:17:27;;;;;;;;;;;;;;;11.48;64.41;101743.84;5084377;28;1621;-39
2022/01/02 06:19:55;;;;;;;;;;;;;;;11.53;65.36;101760.41;5091418;28;1833;-38
2022/01/02 06:22:22;;;;;;;;;;;;;;;11.46;64.44;101748.34;5086405;28;1617;-39
2022/01/02 06:24:48;;;;;;;;;;;;;;;11.49;65.57;101764.13;5085130;28;1711;-38
2022/01/02 06:27:15;;;;;;;;;;;;;;;11.50;64.83;101758.75;5084032;28;1956;-39
2022/01/02 06:29:41;;;;;;;;;;;;;;;11.57;64.93;101766.47;5086254;28;1909;-40
2022/01/02 06:32:07;;;;;;;;;;;;;;;11.77;63.81;101763.84;5085209;28;1109;-39
2022/01/02 06:34:34;;;;;;;;;;;;;;;12.39;61.95;101746.16;5092831;28;1656;-38
2022/01/02 06:37:02;;;;;;;;;;;;;;;12.89;60.99;101761.59;5083821;28;1648;-38
2022/01/02 06:39:28;;;;;;;;;;;;;;;13.04;60.56;101769.78;5083948;28;1499;-39
2022/01/02 06:41:55;;;;;;;;;;;;;;;13.13;60.16;101772.88;5085846;28;1676;-39
2022/01/02 06:44:21;;;;;;;;;;;;;;;13.04;60.51;101785.72;5084928;28;1504;-39
2022/01/02 06:46:47;;;;;;;;;;;;;;;13.10;59.92;101778.31;5085210;28;1009;-39
2022/01/02 06:49:14;;;;;;;;;;;;;;;13.44;59.64;101779.38;5092893;28;1915;-38
2022/01/02 06:51:40;;;;;;;;;;;;;;;13.38;59.70;101794.78;5084423;28;1902;-39
2022/01/02 06:54:08;;;;;;;;;;;;;;;13.57;59.46;101805.34;5084986;28;1674;-39
2022/01/02 06:56:34;;;;;;;;;;;;;;;13.41;59.92;101810.53;5084886;28;1071;-39
2022/01/02 06:59:01;;;;;;;;;;;;;;;13.32;60.12;101795.91;5083809;28;959;-39
2022/01/02 07:01:27;;;;;;;;;;;;;;;13.30;59.86;101803.09;5083078;28;1661;-39
2022/01/02 07:03:54;;;;;;;;;;;;;;;13.36;59.71;101818.75;5094177;28;1781;-40
2022/01/02 07:06:20;;;;;;;;;;;;;;;13.35;60.25;101822.34;5085266;28;1142;-39
2022/01/02 07:08:47;;;;;;;;;;;;;;;13.28;60.25;101831.50;5088707;28;1804;-39
2022/01/02 07:11:15;;;;;;;;;;;;;;;13.25;60.27;101839.59;5084875;28;1969;-39
2022/01/02 07:13:41;;;;;;;;;;;;;;;13.21;60.61;101836.25;5084803;28;1576;-39
2022/01/02 07:16:08;;;;;;;;;;;;;;;13.27;60.35;101827.09;5075030;28;1469;-39
2022/01/02 07:18:34;;;;;;;;;;;;;;;13.26;60.26;101828.06;5086972;28;1083;-39
2022/01/02 07:21:01;;;;;;;;;;;;;;;13.31;60.68;101837.56;5087136;28;1836;-39
2022/01/02 07:23:27;;;;;;;;;;;;;;;13.46;60.31;101835.97;5081485;28;1978;-39
2022/01/02 07:25:54;;;;;;;;;;;;;;;13.50;60.46;101853.47;5084688;28;2097;-39
2022/01/02 07:28:22;;;;;;;;;;;;;;;13.47;60.53;101858.09;5085249;28;1797;-39
2022/01/02 07:30:49;;;;;;;;;;;;;;;13.65;59.95;101853.72;5084991;28;1929;-39
2022/01/02 07:33:15;;;;;;;;;;;;;;;13.81;59.61;101860.00;5090986;28;997;-39
2022/01/02 07:35:41;;;;;;;;;;;;;;;13.72;59.54;101847.16;5083251;28;1665;-39
2022/01/02 07:38:08;;;;;;;;;;;;;;;13.92;58.60;101832.88;5085097;28;1704;-39
2022/01/02 07:40:34;;;;;;;;;;;;;;;13.90;58.75;101848.88;5084971;28;1796;-39
2022/01/02 07:43:01;;;;;;;;;;;;;;;14.05;58.74;101857.91;5084587;28;1473;-39
2022/01/02 07:45:29;;;;;;;;;;;;;;;14.01;59.25;101847.53;5084675;28;1678;-39
2022/01/02 07:47:55;;;;;;;;;;;;;;;13.99;59.62;101852.06;5087871;28;1092;-39
2022/01/02 07:50:22;;;;;;;;;;;;;;;14.13;58.39;101842.44;5085364;28;1906;-39
2022/01/02 07:52:49;;;;;;;;;;;;;;;14.24;58.14;101849.84;5084437;28;1691;-39
2022/01/02 07:55:15;;;;;;;;;;;;;;;14.27;58.00;101836.41;5084295;28;1571;-39
2022/01/02 07:57:42;;;;;;;;;;;;;;;14.25;58.82;101832.13;5084371;28;1645;-39
2022/01/02 08:00:09;;;;;;;;;;;;;;;14.33;58.95;101833.44;5083084;28;1743;-39
2022/01/02 08:02:36;;;;;;;;;;;;;;;14.36;57.73;101842.19;5085467;28;1385;-39
2022/01/02 08:05:03;;;;;;;;;;;;;;;14.58;58.26;101847.31;5088090;28;1889;-39
2022/01/02 08:07:29;;;;;;;;;;;;;;;14.42;58.12;101847.22;5087908;28;1655;-40
2022/01/02 08:09:56;;;;;;;;;;;;;;;14.57;58.98;101851.78;5083541;28;1906;-39
2022/01/02 08:12:22;;;;;;;;;;;;;;;14.51;58.97;101852.06;5082404;28;1901;-39
2022/01/02 08:14:49;;;;;;;;;;;;;;;14.73;58.58;101867.81;5082389;28;1760;-39
2022/01/02 08:17:15;;;;;;;;;;;;;;;14.65;58.67;101862.88;5083150;28;1690;-39
2022/01/02 08:19:43;;;;;;;;;;;;;;;14.71;58.09;101862.56;5089169;28;1667;-39
2022/01/02 08:22:09;;;;;;;;;;;;;;;14.82;57.04;101859.34;5082560;28;1714;-39
2022/01/02 08:24:36;;;;;;;;;;;;;;;14.83;56.87;101846.88;5081730;28;1633;-39
2022/01/02 08:27:02;;;;;;;;;;;;;;;14.83;58.15;101862.84;5082259;28;1469;-39
2022/01/02 08:29:29;;;;;;;;;;;;;;;14.98;57.44;101834.53;5083483;28;1658;-39
2022/01/02 08:31:55;;;;;;;;;;;;;;;15.00;57.24;101859.28;5083302;28;1976;-39
2022/01/02 08:34:22;;;;;;;;;;;;;;;14.99;56.94;101858.44;5090959;28;1962;-39
2022/01/02 08:36:49;;;;;;;;;;;;;;;14.88;58.11;101839.50;5081760;28;1618;-40
2022/01/02 08:39:16;;;;;;;;;;;;;;;15.04;57.52;101847.50;5083542;28;1420;-40
2022/01/02 08:41:42;;;;;;;;;;;;;;;15.10;57.30;101845.41;5082750;28;1742;-40
2022/01/02 08:44:09;;;;;;;;;;;;;;;15.22;56.41;101850.97;5084173;28;1077;-39
2022/01/02 08:46:35;;;;;;;;;;;;;;;15.36;56.73;101842.22;5081033;28;1869;-39
2022/01/02 08:49:02;;;;;;;;;;;;;;;15.38;56.08;101854.53;5090806;28;1952;-39
2022/01/02 08:51:29;;;;;;;;;;;;;;;15.40;55.92;101867.75;5081688;28;1980;-40
2022/01/02 08:53:57;;;;;;;;;;;;;;;15.43;57.39;101852.47;5082677;28;1698;-40
2022/01/02 08:56:24;;;;;;;;;;;;;;;15.44;56.68;101842.69;5082407;28;1749;-40
2022/01/02 08:58:50;;;;;;;;;;;;;;;15.47;57.26;101853.16;5083177;28;1077;-40
2022/01/02 09:01:17;;;;;;;;;;;;;;;15.52;56.20;101872.44;5090043;28;1661;-40
2022/01/02 09:03:44;;;;;;;;;;;;;;;15.54;56.07;101857.22;5083769;28;1710;-40
2022/01/02 09:06:10;;;;;;;;;;;;;;;15.59;56.87;101856.94;5082398;28;1137;-39
2022/01/02 09:08:37;;;;;;;;;;;;;;;15.74;55.65;101841.91;5087923;28;1569;-39
2022/01/02 09:11:05;;;;;;;;;;;;;;;15.68;57.19;101829.75;5083509;28;1884;-40
2022/01/02 09:13:32;;;;;;;;;;;;;;;15.76;56.01;101840.03;5081848;28;1784;-40
2022/01/02 09:15:58;;;;;;;;;;;;;;;15.79;56.38;101835.34;5081360;28;1819;-39
2022/01/02 09:18:24;;;;;;;;;;;;;;;15.83;56.32;101838.72;5084944;28;1073;-39
2022/01/02 09:20:51;;;;;;;;;;;;;;;15.89;56.72;101828.53;5081440;28;1808;-40
2022/01/02 09:23:17;;;;;;;;;;;;;;;15.87;55.68;101825.09;5082274;28;1859;-39
2022/01/02 09:25:44;;;;;;;;;;;;;;;16.01;55.02;101834.97;5083166;28;1788;-40
2022/01/02 09:28:12;;;;;;;;;;;;;;;16.18;54.99;101839.31;5083389;28;1657;-39
2022/01/02 09:30:38;;;;;;;;;;;;;;;15.99;55.84;101817.34;5082898;28;1909;-40
2022/01/02 09:33:08;;;;;;;;;;;;;;;16.24;54.75;101817.59;5087868;28;1026;-39
2022/01/02 09:35:35;;;;;;;;;;;;;;;16.35;54.57;101824.09;5083594;28;1784;-40
2022/01/02 09:38:01;;;;;;;;;;;;;;;16.24;55.05;101822.94;5087343;28;1631;-40
2022/01/02 09:40:29;;;;;;;;;;;;;;;16.26;54.68;101818.38;5087264;28;1753;-40
2022/01/02 09:42:55;;;;;;;;;;;;;;;16.26;55.71;101820.19;5086834;28;1516;-40
2022/01/02 09:45:23;;;;;;;;;;;;;;;16.43;54.37;101803.13;5087232;28;1734;-39
2022/01/02 09:47:51;;;;;;;;;;;;;;;16.42;54.55;101810.28;5089421;28;1069;-39
2022/01/02 09:50:18;;;;;;;;;;;;;;;16.32;55.44;101798.47;5088931;28;1860;-40
2022/01/02 09:52:45;;;;;;;;;;;;;;;16.50;55.15;101794.66;5087195;28;1902;-40
2022/01/02 09:55:11;;;;;;;;;;;;;;;16.44;55.40;101810.22;5087029;28;1480;-40
2022/01/02 09:57:42;;;;;;;;;;;;;;;16.44;55.43;101804.88;5087003;28;2007;-40
2022/01/02 10:00:09;;;;;;;;;;;;;;;16.46;55.37;101810.97;5077175;28;1471;-39
2022/01/02 10:02:50;;;;;;;;;;;;;;;16.50;55.44;101813.34;5088001;28;1273;-39
2022/01/02 10:05:18;;;;;;;;;;;;;;;16.63;55.35;101816.16;5087854;28;2828;-40
2022/01/02 10:07:44;;;;;;;;;;;;;;;16.54;55.34;101806.03;5091080;28;1738;-40
2022/01/02 10:10:11;;;;;;;;;;;;;;;16.62;54.38;101800.22;5086323;28;1737;-40
2022/01/02 10:12:38;;;;;;;;;;;;;;;16.53;54.73;101790.09;5085432;28;1902;-41
2022/01/02 10:15:12;;;;;;;;;;;;;;;16.67;55.15;101798.09;5084623;28;1095;-40
2022/01/02 10:17:54;;;;;;;;;;;;;;;16.64;55.05;101822.34;5084162;28;1915;-40
2022/01/02 10:20:23;;;;;;;;;;;;;;;16.69;54.21;101797.06;5087777;28;1845;-39
2022/01/02 10:23:13;;;;;;;;;;;;;;;16.64;54.97;101801.81;5086174;28;1633;-40
2022/01/02 10:25:40;;;;;;;;;;;;;;;16.79;55.28;101801.81;5086773;28;1722;-40
2022/01/02 10:28:25;;;;;;;;;;;;;;;16.75;54.94;101789.63;5086502;28;1944;-39
2022/01/02 10:30:52;;;;;;;;;;;;;;;16.70;55.41;101789.91;5086363;28;1901;-39
2022/01/02 10:33:19;;;;;;;;;;;;;;;16.66;55.02;101785.72;5092850;28;1076;-39
2022/01/02 10:35:47;;;;;;;;;;;;;;;16.70;55.06;101790.75;5084151;28;2003;-40
2022/01/02 10:38:17;;;;;;;;;;;;;;;16.64;55.80;101768.94;5085270;28;1642;-40
2022/01/02 10:40:44;;;;;;;;;;;;;;;16.64;55.24;101766.25;5085943;28;1661;-39
2022/01/02 10:43:11;;;;;;;;;;;;;;;16.74;55.29;101774.56;5085747;28;1703;-40
2022/01/02 10:45:39;;;;;;;;;;;;;;;16.64;55.25;101777.78;5086090;28;1461;-39
2022/01/02 10:48:08;;;;;;;;;;;;;;;16.53;55.57;101763.38;5089041;28;1063;-40
2022/01/02 10:50:34;;;;;;;;;;;;;;;16.59;55.63;101769.22;5084939;28;1689;-40
2022/01/02 10:53:12;;;;;;;;;;;;;;;16.75;55.10;101765.56;5085814;28;1973;-40
2022/01/02 10:55:39;;;;;;;;;;;;;;;16.75;55.45;101768.25;5085652;28;1609;-40
2022/01/02 10:58:08;;;;;;;;;;;;;;;16.63;55.83;101770.75;5085946;28;1582;-40
2022/01/02 11:00:34;;;;;;;;;;;;;;;16.72;54.99;101753.28;5085660;28;1438;-40
2022/01/02 11:03:01;;;;;;;;;;;;;;;16.76;55.39;101761.97;5089118;28;1312;-40
2022/01/02 11:05:29;;;;;;;;;;;;;;;17.00;54.91;101746.22;5085743;28;1901;-40
2022/01/02 11:07:58;;;;;;;;;;;;;;;17.02;54.91;101755.00;5090583;28;1422;-39
2022/01/02 11:10:28;;;;;;;;;;;;;;;16.88;54.55;101748.72;5084440;28;1629;-39
2022/01/02 11:12:55;;;;;;;;;;;;;;;16.94;55.47;101752.81;5085350;28;1974;-40
2022/01/02 11:15:23;;;;;;;;;;;;;;;17.08;55.08;101750.09;5084666;28;1738;-41
2022/01/02 11:17:50;;;;;;;;;;;;;;;17.11;54.07;101730.38;5083713;28;1087;-39
2022/01/02 11:20:18;;;;;;;;;;;;;;;17.07;54.40;101745.72;5087086;28;1833;-39
2022/01/02 11:22:50;;;;;;;;;;;;;;;17.08;54.52;101722.53;5085143;28;1690;-40
2022/01/02 11:25:20;;;;;;;;;;;;;;;17.04;55.27;101732.56;5084868;28;1464;-40
2022/01/02 11:27:51;;;;;;;;;;;;;;;17.10;54.80;101726.81;5085297;28;1831;-40
2022/01/02 11:30:35;;;;;;;;;;;;;;;17.16;54.47;101725.56;5084774;28;1636;-39
2022/01/02 11:33:02;;;;;;;;;;;;;;;17.13;54.66;101716.88;5082431;28;1971;-40
2022/01/02 11:35:31;;;;;;;;;;;;;;;17.21;54.63;101701.19;5085072;28;1756;-40
2022/01/02 11:38:01;;;;;;;;;;;;;;;17.29;54.29;101713.13;5085198;28;2032;-40
2022/01/02 11:40:43;;;;;;;;;;;;;;;17.20;54.91;101708.34;5084717;28;1672;-40
2022/01/02 11:43:10;;;;;;;;;;;;;;;17.20;54.57;101716.38;5084881;28;1670;-40
2022/01/02 11:45:41;;;;;;;;;;;;;;;17.30;54.36;101705.94;5084597;28;1679;-39
2022/01/02 11:48:30;;;;;;;;;;;;;;;17.24;54.62;101695.66;5089317;28;1091;-40
2022/01/02 11:50:57;;;;;;;;;;;;;;;17.22;54.62;101697.56;5082971;28;1716;-39
2022/01/02 11:53:25;;;;;;;;;;;;;;;17.38;54.50;101692.91;5082302;28;1902;-40
2022/01/02 11:55:53;;;;;;;;;;;;;;;17.33;54.41;101695.06;5076538;28;1754;-40
2022/01/02 11:58:44;;;;;;;;;;;;;;;17.42;54.45;101699.78;5084463;28;1683;-40
2022/01/02 12:01:32;;;;;;;;;;;;;;;17.48;54.10;101694.00;5075272;28;2880;-40
2022/01/02 12:03:58;;;;;;;;;;;;;;;17.47;54.10;101689.63;5058392;28;2133;-40
2022/01/02 12:06:32;;;;;;;;;;;;;;;17.50;53.92;101692.09;5084561;28;1098;-39
2022/01/02 12:08:59;;;;;;;;;;;;;;;17.40;54.49;101684.81;5086420;28;1704;-39
2022/01/02 12:11:42;;;;;;;;;;;;;;;17.49;54.08;101687.72;5084218;28;1989;-39
2022/01/02 12:14:10;;;;;;;;;;;;;;;17.42;54.33;101686.41;5084238;28;1648;-39
2022/01/02 12:16:39;;;;;;;;;;;;;;;17.47;54.24;101675.41;5083971;28;1533;-39
2022/01/02 12:19:05;;;;;;;;;;;;;;;17.58;54.00;101688.06;5084590;28;1843;-39
2022/01/02 12:21:33;;;;;;;;;;;;;;;17.54;54.24;101678.53;5084291;28;1676;-39
2022/01/02 12:23:59;;;;;;;;;;;;;;;17.49;54.40;101673.50;5083130;28;1766;-39
2022/01/02 12:26:33;;;;;;;;;;;;;;;17.47;54.65;101681.63;5082603;28;1076;-39
2022/01/02 12:29:02;;;;;;;;;;;;;;;17.55;54.26;101667.72;5081743;28;2067;-40
2022/01/02 12:31:32;;;;;;;;;;;;;;;17.46;54.45;101658.50;5081676;28;1972;-40
2022/01/02 12:34:13;;;;;;;;;;;;;;;17.41;54.48;101666.00;5091926;28;1846;-39
2022/01/02 12:36:41;;;;;;;;;;;;;;;17.50;54.62;101669.84;5080656;28;1752;-40
2022/01/02 12:39:09;;;;;;;;;;;;;;;17.50;54.65;101668.03;5083505;28;1663;-39
2022/01/02 12:41:36;;;;;;;;;;;;;;;17.45;54.57;101664.81;5082964;28;1094;-39
2022/01/02 12:44:04;;;;;;;;;;;;;;;17.41;54.39;101663.31;5082063;28;1166;-40
2022/01/02 12:46:34;;;;;;;;;;;;;;;17.40;54.48;101661.59;5081410;28;1810;-40
2022/01/02 12:49:01;;;;;;;;;;;;;;;17.49;54.62;101660.13;5091781;28;1616;-40
2022/01/02 12:51:30;;;;;;;;;;;;;;;17.48;54.81;101653.06;5082758;28;2008;-40
2022/01/02 12:54:00;;;;;;;;;;;;;;;17.51;54.80;101639.47;5083390;28;1739;-42